Silla, Spain
Current Conditions -  °F | °C
As of 7:00 AM on Friday 28 Nov 2014 (Local Time) from LEVC Reporting Station
Few Clouds Few Clouds  
Wind Chill: 54°   Ceiling: Unl
Heat Index: 54°   Visibility: 4mi
Dew Point: 52°   Wind: 5mph
Humidity: 94%   Direction: 320°NW
Pressure: 29.29"   Gusts: NA
Location:  39.37°N, 0.42°W
Report Text: LEVC 280600Z 32004KT 7000 FEW015 12/11 Q0992 NOSIG
Loading
Personal Weather Stations






























Interactive Weather Map New forecast layout! Learn more

10-Day Weather Forecast

Advertisements
Track Severe Weather on mobile